createdAt,value
2024-05-09T00:01:10.151Z,28.80
2024-05-09T00:03:41.050Z,28.80
2024-05-09T00:06:10.989Z,28.91
2024-05-09T00:08:40.822Z,28.78
2024-05-09T00:11:10.547Z,28.85
2024-05-09T00:13:40.229Z,28.97
2024-05-09T00:16:09.944Z,28.94
2024-05-09T00:18:39.698Z,28.93
2024-05-09T00:21:10.699Z,28.87
2024-05-09T00:23:40.338Z,28.88
2024-05-09T00:26:10.037Z,28.85
2024-05-09T00:28:39.635Z,28.83
2024-05-09T00:31:11.678Z,28.88
2024-05-09T00:33:41.313Z,28.82
2024-05-09T00:36:10.979Z,28.79
2024-05-09T00:38:40.726Z,28.85
2024-05-09T00:41:10.397Z,28.86
2024-05-09T00:43:40.014Z,28.83
2024-05-09T00:46:09.983Z,28.80
2024-05-09T00:48:39.902Z,28.87
2024-05-09T00:51:09.649Z,28.86
2024-05-09T00:53:39.371Z,28.83
2024-05-09T00:56:09.423Z,28.80
2024-05-09T00:58:39.004Z,28.83
2024-05-09T01:01:08.675Z,28.88
2024-05-09T01:03:38.465Z,28.85
2024-05-09T01:06:08.305Z,28.85
2024-05-09T01:08:37.971Z,28.80
2024-05-09T01:11:08.340Z,28.95
2024-05-09T01:13:38.019Z,28.86
2024-05-09T01:16:08.215Z,28.93
2024-05-09T01:18:37.894Z,28.94
2024-05-09T01:21:09.262Z,28.87
2024-05-09T01:23:38.986Z,28.90
2024-05-09T01:26:08.636Z,29.00
2024-05-09T01:28:38.215Z,28.99
2024-05-09T01:31:08.415Z,28.95
2024-05-09T01:33:38.416Z,28.92
2024-05-09T01:36:08.854Z,29.10
2024-05-09T01:38:38.458Z,29.10
2024-05-09T01:41:08.328Z,29.05
2024-05-09T01:43:37.923Z,29.00
2024-05-09T01:46:09.916Z,29.01
2024-05-09T01:48:39.635Z,29.03
2024-05-09T01:51:09.364Z,29.06
2024-05-09T01:53:39.041Z,29.05
2024-05-09T01:56:09.910Z,29.04
2024-05-09T01:58:39.534Z,29.04
2024-05-09T02:01:09.178Z,28.88
2024-05-09T02:03:39.019Z,28.96
2024-05-09T02:06:08.930Z,28.97
2024-05-09T02:08:39.153Z,28.95
2024-05-09T02:11:10.360Z,28.96
2024-05-09T02:13:39.982Z,28.88
2024-05-09T02:16:12.886Z,28.98
2024-05-09T02:18:42.548Z,29.00
2024-05-09T02:21:12.318Z,29.02
2024-05-09T02:23:41.927Z,29.05
2024-05-09T02:26:11.643Z,28.98
2024-05-09T02:28:41.262Z,28.97
2024-05-09T02:31:13.762Z,28.97
2024-05-09T02:33:43.728Z,29.00
2024-05-09T02:36:13.533Z,28.93
2024-05-09T02:38:43.147Z,28.99
2024-05-09T02:41:13.340Z,28.90
2024-05-09T02:43:43.032Z,28.96
2024-05-09T02:46:12.653Z,28.97
2024-05-09T02:48:43.052Z,29.01
2024-05-09T02:51:12.703Z,28.96
2024-05-09T02:53:42.361Z,29.03
2024-05-09T02:56:12.066Z,28.97
2024-05-09T02:58:41.661Z,28.94
2024-05-09T03:01:11.302Z,28.88
2024-05-09T03:03:43.321Z,28.99
2024-05-09T03:06:13.017Z,28.98
2024-05-09T03:08:45.668Z,29.00
2024-05-09T03:11:23.369Z,28.93
2024-05-09T03:13:53.685Z,29.01
2024-05-09T03:16:23.372Z,28.97
2024-05-09T03:18:54.363Z,29.00
2024-05-09T03:21:23.961Z,29.06
2024-05-09T03:23:53.739Z,29.09
2024-05-09T03:26:23.482Z,28.95
2024-05-09T03:28:53.227Z,29.02
2024-05-09T03:31:22.906Z,29.10
2024-05-09T03:33:52.694Z,29.04
2024-05-09T03:36:22.610Z,29.08
2024-05-09T03:38:52.172Z,29.02
2024-05-09T03:41:22.490Z,29.06
2024-05-09T03:43:52.139Z,28.93
2024-05-09T03:46:21.768Z,28.96
2024-05-09T03:48:51.454Z,28.97
2024-05-09T03:51:21.173Z,28.95
2024-05-09T03:53:50.847Z,29.02
2024-05-09T03:56:20.585Z,29.00
2024-05-09T03:58:50.189Z,28.92
2024-05-09T04:01:19.832Z,29.00
2024-05-09T04:03:49.593Z,28.97
2024-05-09T04:06:22.990Z,28.93
2024-05-09T04:08:52.552Z,29.03
2024-05-09T04:11:22.305Z,28.97
2024-05-09T04:13:51.976Z,28.94
2024-05-09T04:16:21.634Z,28.95
2024-05-09T04:18:51.318Z,28.97
2024-05-09T04:21:20.981Z,29.00
2024-05-09T04:23:50.562Z,29.00
2024-05-09T04:26:20.202Z,28.92
2024-05-09T04:28:49.915Z,28.94
2024-05-09T04:31:19.514Z,28.91
2024-05-09T04:33:49.220Z,28.98
2024-05-09T04:36:18.996Z,29.05
2024-05-09T04:38:48.570Z,29.09
2024-05-09T04:41:18.510Z,29.14
2024-05-09T04:43:50.555Z,28.88
2024-05-09T04:46:20.187Z,28.82
2024-05-09T04:48:49.868Z,28.85
2024-05-09T04:51:19.466Z,28.82
2024-05-09T04:53:49.095Z,28.77
2024-05-09T04:56:18.798Z,28.91
2024-05-09T04:58:49.305Z,28.82
2024-05-09T05:01:19.245Z,28.98
2024-05-09T05:03:49.064Z,28.98
2024-05-09T05:06:18.731Z,28.96
2024-05-09T05:08:48.383Z,29.00
2024-05-09T05:11:18.017Z,29.03
2024-05-09T05:13:47.706Z,28.98
2024-05-09T05:16:17.423Z,29.02
2024-05-09T05:18:47.083Z,29.04
2024-05-09T05:21:16.804Z,29.07
2024-05-09T05:23:46.447Z,29.12
2024-05-09T05:26:19.978Z,29.02
2024-05-09T05:28:49.600Z,28.99
2024-05-09T05:31:19.319Z,29.09
2024-05-09T05:33:50.099Z,29.14
2024-05-09T05:36:19.817Z,29.19
2024-05-09T05:38:49.547Z,29.13
2024-05-09T05:41:19.465Z,29.19
2024-05-09T05:43:49.177Z,29.14
2024-05-09T05:46:18.813Z,29.17
2024-05-09T05:48:48.453Z,29.19
2024-05-09T05:51:18.212Z,29.33
2024-05-09T05:53:47.820Z,29.23
2024-05-09T05:56:17.465Z,29.28
2024-05-09T05:58:47.106Z,29.20
2024-05-09T06:01:16.763Z,29.30
2024-05-09T06:03:46.544Z,29.32
2024-05-09T06:06:16.309Z,29.34
2024-05-09T06:08:45.912Z,29.40
2024-05-09T06:11:15.675Z,29.42
2024-05-09T06:13:45.591Z,29.39
2024-05-09T06:16:15.191Z,29.34
2024-05-09T06:18:46.502Z,29.39
2024-05-09T06:21:18.379Z,29.44
2024-05-09T06:23:48.691Z,29.49
2024-05-09T06:26:18.362Z,29.57
2024-05-09T06:28:48.062Z,29.49
2024-05-09T06:31:17.758Z,29.47
2024-05-09T06:33:47.464Z,29.56
2024-05-09T06:36:17.252Z,29.56
2024-05-09T06:38:46.863Z,29.72
2024-05-09T06:41:16.520Z,29.72
2024-05-09T06:43:46.309Z,29.76
2024-05-09T06:46:15.949Z,29.86
2024-05-09T06:48:47.789Z,29.82
2024-05-09T06:51:17.732Z,29.82
2024-05-09T06:53:47.380Z,29.92
2024-05-09T06:56:17.012Z,29.86
2024-05-09T06:58:46.720Z,29.92
2024-05-09T07:01:16.422Z,30.00
2024-05-09T07:03:46.148Z,29.92
2024-05-09T07:06:15.980Z,30.00
2024-05-09T07:08:46.237Z,30.06
2024-05-09T07:11:17.005Z,30.04
2024-05-09T07:13:46.749Z,30.02
2024-05-09T07:16:16.462Z,30.07
2024-05-09T07:18:46.917Z,30.12
2024-05-09T07:21:16.793Z,30.06
2024-05-09T07:23:47.433Z,30.04
2024-05-09T07:26:17.980Z,30.05
2024-05-09T07:28:47.650Z,30.15
2024-05-09T07:31:17.240Z,30.16
2024-05-09T07:33:46.922Z,30.11
2024-05-09T07:36:16.616Z,30.06
2024-05-09T07:38:46.248Z,30.09
2024-05-09T07:41:15.866Z,30.16
2024-05-09T07:43:45.528Z,30.09
2024-05-09T07:53:55.831Z,30.22
2024-05-09T07:56:28.290Z,30.24
2024-05-09T07:58:57.983Z,30.34
2024-05-09T08:01:27.730Z,30.29
2024-05-09T08:03:57.639Z,30.27
2024-05-09T08:06:27.660Z,30.21
2024-05-09T08:09:00.870Z,30.23
2024-05-09T08:11:33.665Z,30.35
2024-05-09T08:14:03.284Z,30.39
2024-05-09T08:16:32.901Z,30.22
2024-05-09T08:19:03.024Z,30.31
2024-05-09T08:21:33.201Z,30.54
2024-05-09T08:24:02.787Z,30.34
2024-05-09T08:26:32.345Z,30.27
2024-05-09T08:29:01.899Z,30.39
2024-05-09T08:31:31.725Z,30.31
2024-05-09T08:34:01.408Z,30.39
2024-05-09T08:36:31.153Z,30.42
2024-05-09T08:39:00.731Z,30.39
2024-05-09T08:41:30.308Z,30.52
2024-05-09T08:43:59.879Z,30.44
2024-05-09T08:46:29.673Z,30.49
2024-05-09T08:48:59.619Z,30.44
2024-05-09T08:51:29.256Z,30.27
2024-05-09T08:53:58.995Z,30.35
2024-05-09T08:56:29.616Z,30.35
2024-05-09T08:59:01.331Z,30.27
2024-05-09T09:01:31.930Z,30.29
2024-05-09T09:04:02.957Z,30.29
2024-05-09T09:06:32.658Z,30.34
2024-05-09T09:09:02.225Z,30.42
2024-05-09T09:11:31.892Z,30.30
2024-05-09T09:14:01.523Z,30.29
2024-05-09T09:16:35.247Z,30.37
2024-05-09T09:19:05.545Z,30.36
2024-05-09T09:21:35.413Z,30.29
2024-05-09T09:24:09.358Z,30.41
2024-05-09T09:26:39.438Z,30.45
2024-05-09T09:29:08.990Z,30.60
2024-05-09T09:31:38.943Z,30.75
2024-05-09T09:34:10.219Z,30.87
2024-05-09T09:36:40.383Z,30.91
2024-05-09T09:39:10.137Z,31.01
2024-05-09T09:41:39.721Z,31.07
2024-05-09T09:44:11.630Z,31.20
2024-05-09T09:46:41.205Z,31.29
2024-05-09T09:49:10.899Z,31.26
2024-05-09T09:51:43.281Z,31.07
2024-05-09T09:54:12.981Z,31.14
2024-05-09T09:56:42.676Z,31.21
2024-05-09T09:59:12.281Z,31.21
2024-05-09T10:01:45.511Z,31.28
2024-05-09T10:04:15.445Z,31.30
2024-05-09T10:06:45.497Z,31.25
2024-05-09T10:09:16.217Z,31.10
2024-05-09T10:11:51.775Z,31.13
2024-05-09T10:14:25.092Z,31.19
2024-05-09T10:17:04.037Z,31.13
2024-05-09T10:19:33.858Z,31.18
2024-05-09T10:22:04.198Z,31.16
2024-05-09T10:24:48.308Z,31.14
2024-05-09T10:27:25.572Z,31.17
2024-05-09T10:29:55.583Z,31.12
2024-05-09T10:32:25.384Z,31.16
2024-05-09T10:35:07.425Z,31.15
2024-05-09T10:37:37.160Z,31.22
2024-05-09T10:40:14.249Z,31.12
2024-05-09T10:42:49.483Z,31.06
2024-05-09T10:45:19.322Z,31.00
2024-05-09T10:47:49.504Z,30.93
2024-05-09T10:50:25.712Z,30.92
2024-05-09T10:52:58.601Z,30.92
2024-05-09T10:55:28.246Z,30.85
2024-05-09T10:57:57.962Z,30.75
2024-05-09T11:00:36.100Z,30.71
2024-05-09T11:03:07.098Z,30.69
2024-05-09T11:05:37.011Z,30.64
2024-05-09T11:08:07.845Z,30.60
2024-05-09T11:10:37.466Z,30.45
2024-05-09T11:13:07.256Z,30.43
2024-05-09T11:15:42.952Z,30.41
2024-05-09T11:18:25.037Z,30.31
2024-05-09T11:20:56.256Z,30.27
2024-05-09T11:23:27.203Z,30.22
2024-05-09T11:25:57.328Z,30.19
2024-05-09T11:28:29.116Z,30.25
2024-05-09T11:31:08.022Z,30.19
2024-05-09T11:33:39.521Z,30.19
2024-05-09T11:36:09.812Z,30.02
2024-05-09T11:38:39.438Z,29.77
2024-05-09T11:41:09.003Z,29.60
2024-05-09T11:43:38.700Z,29.17
2024-05-09T11:46:08.383Z,28.70
2024-05-09T11:48:38.412Z,28.42
2024-05-09T11:51:08.314Z,28.06
2024-05-09T11:53:37.882Z,27.73
2024-05-09T11:56:08.102Z,27.39
2024-05-09T11:58:39.251Z,27.23
2024-05-09T12:01:08.870Z,27.13
2024-05-09T12:03:38.657Z,26.97
2024-05-09T12:06:08.390Z,27.10
2024-05-09T12:08:37.988Z,27.16
2024-05-09T12:11:07.764Z,27.25
2024-05-09T12:13:37.406Z,27.48
2024-05-09T12:16:08.061Z,27.72
2024-05-09T12:18:37.799Z,27.42
2024-05-09T12:21:07.799Z,27.19
2024-05-09T12:23:37.755Z,27.05
2024-05-09T12:26:07.538Z,26.89
2024-05-09T12:28:37.127Z,26.75
2024-05-09T12:31:06.965Z,26.55
2024-05-09T12:33:36.771Z,26.33
2024-05-09T12:36:07.182Z,26.26
2024-05-09T12:38:36.863Z,26.02
2024-05-09T12:41:06.889Z,25.97
2024-05-09T12:43:36.542Z,25.69
2024-05-09T12:46:06.473Z,25.55
2024-05-09T12:48:36.331Z,25.44
2024-05-09T12:51:06.602Z,25.43
2024-05-09T12:53:37.723Z,25.39
2024-05-09T12:56:09.478Z,25.37
2024-05-09T12:58:39.280Z,25.24
2024-05-09T13:01:08.928Z,25.22
2024-05-09T13:03:38.793Z,25.10
2024-05-09T13:06:08.632Z,25.02
2024-05-09T13:08:38.247Z,24.94
2024-05-09T13:11:08.121Z,24.81
2024-05-09T13:13:37.737Z,24.77
2024-05-09T13:16:08.133Z,24.64
2024-05-09T13:18:38.004Z,24.62
2024-05-09T13:21:07.833Z,24.56
2024-05-09T13:23:37.769Z,24.38
2024-05-09T13:26:07.488Z,24.40
2024-05-09T13:28:37.103Z,24.40
2024-05-09T13:31:06.860Z,24.31
2024-05-09T13:33:36.644Z,24.36
2024-05-09T13:36:08.085Z,24.31
2024-05-09T13:38:37.701Z,24.14
2024-05-09T13:41:07.454Z,24.13
2024-05-09T13:43:37.090Z,24.22
2024-05-09T13:46:06.931Z,24.09
2024-05-09T13:48:36.587Z,24.21
2024-05-09T13:51:07.344Z,24.34
2024-05-09T13:53:36.920Z,24.31
2024-05-09T13:56:08.449Z,24.32
2024-05-09T13:58:38.014Z,24.54
2024-05-09T14:01:07.918Z,24.53
2024-05-09T14:03:37.691Z,24.62
2024-05-09T14:06:11.289Z,24.76
2024-05-09T14:08:42.513Z,24.86
2024-05-09T14:11:12.104Z,24.87
2024-05-09T14:13:41.705Z,24.89
2024-05-09T14:16:11.354Z,24.83
2024-05-09T14:18:41.298Z,24.98
2024-05-09T14:21:10.889Z,24.94
2024-05-09T14:23:40.470Z,25.01
2024-05-09T14:26:10.112Z,25.18
2024-05-09T14:28:39.711Z,25.12
2024-05-09T14:31:09.324Z,25.23
2024-05-09T14:33:39.454Z,25.31
2024-05-09T14:36:09.655Z,25.37
2024-05-09T14:38:39.259Z,25.41
2024-05-09T14:41:09.260Z,25.45
2024-05-09T14:43:38.835Z,25.40
2024-05-09T14:46:08.567Z,25.19
2024-05-09T14:48:38.211Z,25.25
2024-05-09T14:51:08.128Z,25.31
2024-05-09T14:53:37.697Z,25.32
2024-05-09T14:56:08.475Z,25.31
2024-05-09T14:58:38.222Z,25.20
2024-05-09T15:01:07.998Z,25.22
2024-05-09T15:03:37.743Z,24.99
2024-05-09T15:06:07.828Z,25.06
2024-05-09T15:08:37.492Z,24.83
2024-05-09T15:11:07.303Z,24.92
2024-05-09T15:13:36.962Z,24.91
2024-05-09T15:16:07.593Z,25.04
2024-05-09T15:18:38.710Z,25.27
2024-05-09T15:21:09.406Z,25.16
2024-05-09T15:23:39.036Z,25.35
2024-05-09T15:26:08.611Z,25.26
2024-05-09T15:28:38.207Z,25.30
2024-05-09T15:31:07.907Z,25.13
2024-05-09T15:33:37.537Z,25.19
2024-05-09T15:36:07.889Z,25.06
2024-05-09T15:38:38.912Z,25.04
2024-05-09T15:41:08.563Z,25.12
2024-05-09T15:43:38.162Z,25.19
2024-05-09T15:46:08.018Z,25.18
2024-05-09T15:48:39.240Z,25.18
2024-05-09T15:51:11.516Z,25.22
2024-05-09T15:53:41.096Z,25.21
2024-05-09T15:56:11.130Z,25.25
2024-05-09T15:58:40.855Z,25.19
2024-05-09T16:01:10.497Z,25.10
2024-05-09T16:03:40.262Z,24.94
2024-05-09T16:06:10.073Z,24.84
2024-05-09T16:08:39.659Z,24.89
2024-05-09T16:11:09.396Z,24.85
2024-05-09T16:13:39.029Z,24.95
2024-05-09T16:16:09.417Z,24.92
2024-05-09T16:18:39.150Z,24.91
2024-05-09T16:21:09.589Z,24.86
2024-05-09T16:23:40.158Z,24.85
2024-05-09T16:26:09.899Z,24.82
2024-05-09T16:28:39.508Z,24.80
2024-05-09T16:31:09.263Z,24.76
2024-05-09T16:33:40.052Z,24.86
2024-05-09T16:36:09.948Z,24.82
2024-05-09T16:38:41.107Z,24.87
2024-05-09T16:41:10.712Z,24.92
2024-05-09T16:43:40.310Z,24.88
2024-05-09T16:46:09.882Z,25.00
2024-05-09T16:48:40.542Z,24.83
2024-05-09T16:51:10.599Z,24.90
2024-05-09T16:53:41.055Z,24.86
2024-05-09T16:56:10.727Z,24.89
2024-05-09T16:58:40.291Z,24.78
2024-05-09T17:01:13.098Z,24.76
2024-05-09T17:03:42.891Z,24.77
2024-05-09T17:06:12.701Z,24.86
2024-05-09T17:08:43.426Z,24.67
2024-05-09T17:11:15.048Z,24.75
2024-05-09T17:13:48.092Z,24.78
2024-05-09T17:16:17.990Z,24.65
2024-05-09T17:18:48.530Z,24.65
2024-05-09T17:21:18.389Z,24.54
2024-05-09T17:23:48.772Z,24.70
2024-05-09T17:26:18.362Z,24.55
2024-05-09T17:28:47.935Z,24.42
2024-05-09T17:31:17.554Z,24.52
2024-05-09T17:33:47.392Z,24.57
2024-05-09T17:36:17.239Z,24.39
2024-05-09T17:38:47.120Z,24.44
2024-05-09T17:41:16.676Z,24.45
2024-05-09T17:43:46.665Z,24.44
2024-05-09T17:46:16.279Z,24.36
2024-05-09T17:48:45.995Z,24.40
2024-05-09T17:51:16.103Z,24.44
2024-05-09T17:53:47.524Z,24.50
2024-05-09T17:56:17.240Z,24.56
2024-05-09T17:58:48.587Z,24.58
2024-05-09T18:01:18.315Z,24.53
2024-05-09T18:03:49.682Z,24.54
2024-05-09T18:06:19.840Z,24.58
2024-05-09T18:08:49.400Z,24.50
2024-05-09T18:11:19.062Z,24.56
2024-05-09T18:13:48.698Z,24.47
2024-05-09T18:16:18.694Z,24.40
2024-05-09T18:18:48.368Z,24.49
2024-05-09T18:21:18.111Z,24.44
2024-05-09T18:23:47.675Z,24.38
2024-05-09T18:26:17.277Z,24.44
2024-05-09T18:28:46.936Z,24.51
2024-05-09T18:31:16.601Z,24.46
2024-05-09T18:33:46.829Z,24.57
2024-05-09T18:36:16.605Z,24.70
2024-05-09T18:38:46.165Z,24.58
2024-05-09T18:41:15.759Z,24.62
2024-05-09T18:43:48.662Z,24.66
2024-05-09T18:46:20.071Z,24.80
2024-05-09T18:48:50.133Z,24.73
2024-05-09T18:51:21.507Z,24.86
2024-05-09T18:53:52.066Z,24.87
2024-05-09T18:56:21.635Z,25.00
2024-05-09T18:58:51.211Z,25.16
2024-05-09T19:01:20.873Z,25.16
2024-05-09T19:03:50.825Z,25.26
2024-05-09T19:06:24.566Z,25.26
2024-05-09T19:08:54.679Z,25.34
2024-05-09T19:11:24.299Z,25.43
2024-05-09T19:13:53.960Z,25.32
2024-05-09T19:16:23.684Z,25.47
2024-05-09T19:18:53.730Z,25.50
2024-05-09T19:21:23.513Z,25.53
2024-05-09T19:23:53.861Z,25.49
2024-05-09T19:26:23.496Z,25.59
2024-05-09T19:28:53.758Z,25.53
2024-05-09T19:31:23.415Z,25.48
2024-05-09T19:33:53.216Z,25.43
2024-05-09T19:36:22.803Z,25.49
2024-05-09T19:38:52.422Z,25.43
2024-05-09T19:41:22.280Z,25.50
2024-05-09T19:43:51.897Z,25.41
2024-05-09T19:46:21.502Z,25.44
2024-05-09T19:48:51.260Z,25.43
2024-05-09T19:51:20.964Z,25.46
2024-05-09T19:53:51.109Z,25.49
2024-05-09T19:56:20.676Z,25.48
2024-05-09T19:58:50.257Z,25.63
2024-05-09T20:01:20.072Z,25.62
2024-05-09T20:03:50.264Z,25.63
2024-05-09T20:06:24.056Z,25.66
2024-05-09T20:08:56.792Z,25.58
2024-05-09T20:11:27.018Z,25.57
2024-05-09T20:13:58.126Z,25.60
2024-05-09T20:16:27.747Z,25.64
2024-05-09T20:18:57.856Z,25.56
2024-05-09T20:21:27.525Z,25.72
2024-05-09T20:23:57.581Z,25.73
2024-05-09T20:26:28.604Z,25.80
2024-05-09T20:28:59.388Z,25.79
2024-05-09T20:31:29.042Z,25.75
2024-05-09T20:33:58.652Z,25.76
2024-05-09T20:36:28.318Z,25.85
2024-05-09T20:38:57.934Z,25.80
2024-05-09T20:41:27.520Z,25.94
2024-05-09T20:44:00.191Z,26.02
2024-05-09T20:46:29.856Z,25.95
2024-05-09T20:48:59.574Z,25.90
2024-05-09T20:51:30.316Z,25.97
2024-05-09T20:54:00.224Z,26.19
2024-05-09T20:56:29.776Z,26.12
2024-05-09T20:58:59.969Z,26.11
2024-05-09T21:01:29.647Z,26.22
2024-05-09T21:04:00.072Z,26.16
2024-05-09T21:06:29.852Z,26.24
2024-05-09T21:08:59.412Z,26.33
2024-05-09T21:11:28.988Z,26.32
2024-05-09T21:13:58.563Z,26.25
2024-05-09T21:16:28.197Z,26.33
2024-05-09T21:18:57.861Z,26.35
2024-05-09T21:21:27.464Z,26.44
2024-05-09T21:23:57.019Z,26.45
2024-05-09T21:26:26.580Z,26.49
2024-05-09T21:28:56.170Z,26.50
2024-05-09T21:31:25.869Z,26.59
2024-05-09T21:33:55.651Z,26.63
2024-05-09T21:36:25.361Z,26.73
2024-05-09T21:38:55.010Z,26.67
2024-05-09T21:41:25.026Z,26.72
2024-05-09T21:43:54.596Z,26.83
2024-05-09T21:46:24.526Z,26.97
2024-05-09T21:48:54.426Z,27.04
2024-05-09T21:51:24.902Z,27.06
2024-05-09T21:53:56.221Z,27.06
2024-05-09T21:56:25.843Z,27.15
2024-05-09T21:58:55.572Z,27.26
2024-05-09T22:01:25.325Z,27.29
2024-05-09T22:03:55.620Z,27.33
2024-05-09T22:06:25.274Z,27.33
2024-05-09T22:08:54.830Z,27.45
2024-05-09T22:11:24.438Z,27.48
2024-05-09T22:13:54.127Z,27.54
2024-05-09T22:16:24.195Z,27.69
2024-05-09T22:18:53.898Z,27.65
2024-05-09T22:21:23.562Z,27.66
2024-05-09T22:23:53.895Z,27.79
2024-05-09T22:26:23.449Z,27.71
2024-05-09T22:28:53.073Z,27.84
2024-05-09T22:31:22.794Z,27.79
2024-05-09T22:33:52.553Z,27.84
2024-05-09T22:36:22.682Z,27.87
2024-05-09T22:38:52.261Z,27.91
2024-05-09T22:41:21.823Z,28.03
2024-05-09T22:43:51.434Z,27.94
2024-05-09T22:46:21.081Z,27.86
2024-05-09T22:48:50.832Z,28.03
2024-05-09T22:51:20.463Z,27.95
2024-05-09T22:53:50.019Z,28.04
2024-05-09T22:56:27.946Z,28.12
2024-05-09T22:58:57.668Z,28.11
2024-05-09T23:01:27.787Z,28.18
2024-05-09T23:03:57.571Z,28.00
2024-05-09T23:06:27.349Z,28.15
2024-05-09T23:08:56.904Z,28.25
2024-05-09T23:11:26.502Z,28.14
2024-05-09T23:13:56.121Z,28.23
2024-05-09T23:16:25.865Z,28.23
2024-05-09T23:18:55.976Z,28.24
2024-05-09T23:21:25.780Z,28.33
2024-05-09T23:23:55.430Z,28.26
2024-05-09T23:26:24.997Z,28.36
2024-05-09T23:28:54.585Z,28.35
2024-05-09T23:31:24.282Z,28.39
2024-05-09T23:33:54.556Z,28.41
2024-05-09T23:36:24.269Z,28.52
2024-05-09T23:38:53.846Z,28.48
2024-05-09T23:41:23.443Z,28.52
2024-05-09T23:43:53.004Z,28.48
2024-05-09T23:46:22.723Z,28.54
2024-05-09T23:48:52.701Z,28.54
2024-05-09T23:51:22.313Z,28.66
2024-05-09T23:53:52.176Z,28.54
2024-05-09T23:56:21.924Z,28.66
2024-05-09T23:58:51.497Z,28.67
